createdAt,value
2022-08-12T00:00:13.498Z,0.00
2022-08-12T00:01:13.489Z,0.00
2022-08-12T00:02:13.514Z,0.00
2022-08-12T00:03:13.494Z,0.00
2022-08-12T00:04:13.484Z,0.00
2022-08-12T00:05:13.470Z,0.00
2022-08-12T00:06:13.438Z,0.00
2022-08-12T00:07:13.434Z,0.00
2022-08-12T00:08:13.411Z,0.00
2022-08-12T00:09:13.408Z,0.00
2022-08-12T00:10:13.420Z,0.00
2022-08-12T00:11:13.396Z,0.00
2022-08-12T00:12:13.401Z,0.00
2022-08-12T00:13:16.822Z,0.00
2022-08-12T00:14:14.386Z,0.00
2022-08-12T00:15:14.021Z,0.00
2022-08-12T00:16:13.318Z,0.00
2022-08-12T00:17:13.331Z,0.00
2022-08-12T00:18:13.313Z,0.00
2022-08-12T00:19:13.322Z,0.00
2022-08-12T00:20:13.272Z,0.00
2022-08-12T00:21:13.267Z,0.00
2022-08-12T00:22:13.281Z,0.00
2022-08-12T00:23:13.267Z,0.00
2022-08-12T00:24:13.854Z,0.00
2022-08-12T00:25:13.271Z,0.00
2022-08-12T00:26:22.882Z,0.00
2022-08-12T00:27:13.232Z,0.00
2022-08-12T00:28:13.222Z,0.00
2022-08-12T00:29:13.229Z,0.00
2022-08-12T00:30:13.368Z,0.00
2022-08-12T00:31:13.174Z,0.00
2022-08-12T00:32:13.468Z,0.00
2022-08-12T00:33:13.154Z,0.00
2022-08-12T00:34:13.147Z,0.00
2022-08-12T00:35:13.159Z,0.00
2022-08-12T00:36:34.966Z,0.00
2022-08-12T00:37:14.215Z,0.00
2022-08-12T00:38:13.201Z,0.00
2022-08-12T00:39:13.096Z,0.00
2022-08-12T00:40:13.091Z,0.00
2022-08-12T00:41:13.072Z,0.00
2022-08-12T00:42:13.071Z,0.00
2022-08-12T00:43:13.063Z,0.00
2022-08-12T00:44:13.033Z,0.00
2022-08-12T00:45:13.058Z,0.00
2022-08-12T00:46:13.013Z,0.00
2022-08-12T00:47:24.669Z,0.00
2022-08-12T00:48:12.994Z,0.00
2022-08-12T00:49:12.980Z,0.00
2022-08-12T00:50:13.034Z,0.00
2022-08-12T00:51:12.974Z,0.00
2022-08-12T00:52:12.961Z,0.00
2022-08-12T00:53:12.949Z,0.00
2022-08-12T00:54:12.912Z,0.00
2022-08-12T00:55:12.935Z,0.00
2022-08-12T00:56:12.924Z,0.00
2022-08-12T00:57:12.886Z,0.00
2022-08-12T00:58:13.876Z,0.00
2022-08-12T00:59:12.886Z,0.00
2022-08-12T01:00:12.875Z,0.00
2022-08-12T01:01:12.895Z,0.00
2022-08-12T01:02:12.932Z,0.00
2022-08-12T01:03:12.809Z,0.00
2022-08-12T01:04:12.821Z,0.00
2022-08-12T01:05:12.961Z,0.00
2022-08-12T01:06:12.797Z,0.00
2022-08-12T01:07:12.794Z,0.00
2022-08-12T01:08:12.774Z,0.00
2022-08-12T01:09:12.761Z,0.00
2022-08-12T01:10:12.796Z,0.00
2022-08-12T01:11:12.733Z,0.00
2022-08-12T01:12:12.736Z,0.00
2022-08-12T01:13:20.025Z,0.00
2022-08-12T01:14:12.731Z,0.00
2022-08-12T01:15:12.766Z,0.00
2022-08-12T01:16:12.721Z,0.00
2022-08-12T01:17:12.685Z,0.00
2022-08-12T01:18:12.680Z,0.00
2022-08-12T01:19:12.664Z,0.00
2022-08-12T01:20:12.651Z,0.00
2022-08-12T01:21:12.673Z,0.00
2022-08-12T01:22:12.618Z,0.00
2022-08-12T01:23:12.624Z,0.00
2022-08-12T01:24:29.567Z,0.00
2022-08-12T01:25:12.595Z,0.00
2022-08-12T01:26:12.626Z,0.00
2022-08-12T01:27:12.586Z,0.00
2022-08-12T01:28:12.568Z,0.00
2022-08-12T01:29:12.554Z,0.00
2022-08-12T01:30:12.568Z,0.00
2022-08-12T01:31:16.248Z,0.00
2022-08-12T01:32:12.525Z,0.00
2022-08-12T01:33:12.526Z,0.00
2022-08-12T01:34:28.638Z,0.00
2022-08-12T01:35:12.493Z,0.00
2022-08-12T01:36:12.552Z,0.00
2022-08-12T01:37:12.467Z,0.00
2022-08-12T01:38:12.456Z,0.00
2022-08-12T01:39:12.492Z,0.00
2022-08-12T01:40:34.099Z,0.00
2022-08-12T01:41:12.429Z,0.00
2022-08-12T01:42:12.462Z,0.00
2022-08-12T01:43:12.400Z,0.00
2022-08-12T01:44:12.381Z,0.00
2022-08-12T01:45:12.460Z,0.00
2022-08-12T01:46:12.372Z,0.00
2022-08-12T01:47:12.383Z,0.00
2022-08-12T01:48:12.368Z,0.00
2022-08-12T01:49:12.355Z,0.00
2022-08-12T01:50:12.346Z,0.00
2022-08-12T01:51:12.354Z,0.00
2022-08-12T01:52:20.996Z,0.00
2022-08-12T01:53:12.357Z,0.00
2022-08-12T01:54:12.299Z,0.00
2022-08-12T01:55:12.283Z,0.00
2022-08-12T01:56:12.290Z,0.00
2022-08-12T01:57:12.309Z,0.00
2022-08-12T01:58:12.270Z,0.00
2022-08-12T01:59:12.550Z,0.00
2022-08-12T02:00:12.266Z,0.00
2022-08-12T02:01:12.272Z,0.00
2022-08-12T02:02:12.214Z,0.00
2022-08-12T02:03:12.606Z,0.00
2022-08-12T02:04:12.214Z,0.00
2022-08-12T02:05:12.199Z,0.00
2022-08-12T02:06:12.157Z,0.00
2022-08-12T02:07:12.170Z,0.00
2022-08-12T02:08:12.153Z,0.00
2022-08-12T02:09:12.161Z,0.00
2022-08-12T02:10:51.058Z,0.00
2022-08-12T02:11:12.110Z,0.00
2022-08-12T02:12:12.108Z,0.00
2022-08-12T02:13:12.131Z,0.00
2022-08-12T02:14:12.114Z,0.00
2022-08-12T02:15:12.073Z,0.00
2022-08-12T02:16:12.055Z,0.00
2022-08-12T02:17:12.052Z,0.00
2022-08-12T02:18:12.083Z,0.00
2022-08-12T02:19:16.122Z,0.00
2022-08-12T02:20:12.038Z,0.00
2022-08-12T02:21:12.012Z,0.00
2022-08-12T02:22:11.997Z,0.00
2022-08-12T02:23:11.991Z,0.00
2022-08-12T02:24:11.992Z,0.00
2022-08-12T02:25:11.982Z,0.00
2022-08-12T02:26:11.951Z,0.00
2022-08-12T02:27:11.955Z,0.00
2022-08-12T02:28:11.947Z,0.00
2022-08-12T02:29:11.938Z,0.00
2022-08-12T02:30:11.937Z,0.00
2022-08-12T02:31:11.901Z,0.00
2022-08-12T02:32:11.893Z,0.00
2022-08-12T02:33:11.899Z,0.00
2022-08-12T02:34:11.902Z,0.00
2022-08-12T02:35:11.851Z,0.00
2022-08-12T02:36:11.871Z,0.00
2022-08-12T02:37:11.869Z,0.00
2022-08-12T02:38:11.863Z,0.00
2022-08-12T02:39:11.888Z,0.00
2022-08-12T02:40:12.057Z,0.00
2022-08-12T02:41:11.825Z,0.00
2022-08-12T02:42:11.786Z,0.00
2022-08-12T02:43:11.764Z,0.00
2022-08-12T02:44:11.789Z,0.00
2022-08-12T02:45:11.768Z,0.00
2022-08-12T02:46:14.463Z,0.00
2022-08-12T02:47:58.228Z,0.00
2022-08-12T02:48:11.724Z,0.00
2022-08-12T02:49:12.622Z,0.00
2022-08-12T02:50:11.736Z,0.00
2022-08-12T02:51:11.681Z,0.00
2022-08-12T02:52:11.690Z,0.00
2022-08-12T02:53:11.669Z,0.00
2022-08-12T02:54:11.671Z,0.00
2022-08-12T02:55:11.683Z,0.00
2022-08-12T02:56:11.636Z,0.00
2022-08-12T02:57:11.636Z,0.00
2022-08-12T02:58:12.715Z,0.00
2022-08-12T02:59:11.612Z,0.00
2022-08-12T03:00:11.645Z,0.00
2022-08-12T03:01:11.668Z,0.00
2022-08-12T03:02:11.589Z,0.00
2022-08-12T03:03:11.623Z,0.00
2022-08-12T03:04:15.257Z,0.00
2022-08-12T03:05:11.595Z,0.00
2022-08-12T03:06:11.560Z,0.00
2022-08-12T03:07:11.517Z,0.00
2022-08-12T03:08:19.096Z,0.00
2022-08-12T03:09:11.781Z,0.00
2022-08-12T03:10:15.903Z,0.00
2022-08-12T03:11:14.277Z,0.00
2022-08-12T03:12:12.166Z,0.00
2022-08-12T03:13:11.463Z,0.00
2022-08-12T03:14:11.501Z,0.00
2022-08-12T03:15:11.463Z,0.00
2022-08-12T03:16:11.457Z,0.00
2022-08-12T03:17:11.442Z,0.00
2022-08-12T03:18:24.637Z,0.00
2022-08-12T03:19:11.418Z,0.00
2022-08-12T03:20:11.407Z,0.00
2022-08-12T03:21:11.407Z,0.00
2022-08-12T03:22:11.369Z,0.00
2022-08-12T03:23:11.380Z,0.00
2022-08-12T03:24:11.375Z,0.00
2022-08-12T03:25:11.350Z,0.00
2022-08-12T03:26:11.370Z,0.00
2022-08-12T03:27:11.335Z,0.00
2022-08-12T03:28:11.308Z,0.00
2022-08-12T03:29:11.325Z,0.00
2022-08-12T03:30:11.303Z,0.00
2022-08-12T03:31:11.322Z,0.00
2022-08-12T03:32:36.401Z,0.00
2022-08-12T03:33:11.267Z,0.00
2022-08-12T03:34:11.257Z,0.00
2022-08-12T03:35:40.384Z,0.00
2022-08-12T03:36:11.238Z,0.00
2022-08-12T03:37:11.220Z,0.00
2022-08-12T03:38:11.868Z,0.00
2022-08-12T03:39:11.242Z,0.00
2022-08-12T03:40:11.279Z,0.00
2022-08-12T03:41:11.197Z,0.00
2022-08-12T03:42:11.169Z,0.00
2022-08-12T03:43:11.759Z,0.00
2022-08-12T03:44:11.143Z,0.00
2022-08-12T03:45:11.145Z,0.00
2022-08-12T03:46:11.163Z,0.00
2022-08-12T03:47:11.115Z,0.00
2022-08-12T03:48:11.105Z,0.00
2022-08-12T03:49:11.107Z,0.00
2022-08-12T03:50:11.082Z,0.00
2022-08-12T03:51:11.107Z,0.00
2022-08-12T03:52:11.076Z,0.00
2022-08-12T03:53:11.052Z,0.00
2022-08-12T03:54:11.822Z,0.00
2022-08-12T03:55:12.976Z,0.00
2022-08-12T03:56:11.039Z,0.00
2022-08-12T03:57:11.059Z,0.00
2022-08-12T03:58:11.016Z,0.00
2022-08-12T03:59:10.996Z,0.00
2022-08-12T04:00:10.993Z,0.00
2022-08-12T04:01:11.013Z,0.00
2022-08-12T04:02:11.012Z,0.00
2022-08-12T04:03:12.921Z,5.62
2022-08-12T04:04:11.477Z,5.62
2022-08-12T04:05:10.945Z,5.62
2022-08-12T04:06:10.905Z,5.62
2022-08-12T04:07:12.193Z,5.62
2022-08-12T04:08:10.915Z,5.62
2022-08-12T04:21:13.094Z,16.88
2022-08-12T04:22:12.366Z,16.88
2022-08-12T04:23:12.329Z,16.88
2022-08-12T04:24:12.299Z,22.50
2022-08-12T04:25:12.125Z,22.50
2022-08-12T04:26:12.119Z,22.50
2022-08-12T04:27:12.092Z,22.50
2022-08-12T04:28:13.550Z,22.50
2022-08-12T04:29:12.069Z,28.12
2022-08-12T04:30:21.354Z,28.12
2022-08-12T04:31:13.055Z,28.12
2022-08-12T04:32:12.044Z,28.12
2022-08-12T04:33:12.040Z,28.12
2022-08-12T04:34:12.039Z,28.12
2022-08-12T04:35:12.004Z,33.75
2022-08-12T04:36:12.005Z,33.75
2022-08-12T04:37:11.978Z,33.75
2022-08-12T04:38:12.006Z,33.75
2022-08-12T04:39:12.002Z,33.75
2022-08-12T04:40:11.962Z,39.38
2022-08-12T04:41:11.959Z,39.38
2022-08-12T04:42:11.934Z,39.38
2022-08-12T04:43:59.702Z,39.38
2022-08-12T04:44:12.957Z,39.38
2022-08-12T04:45:11.885Z,39.38
2022-08-12T04:46:11.887Z,45.00
2022-08-12T04:47:11.894Z,45.00
2022-08-12T04:48:11.866Z,45.00
2022-08-12T04:49:11.865Z,45.00
2022-08-12T04:50:33.956Z,45.00
2022-08-12T04:51:11.823Z,45.00
2022-08-12T04:52:11.831Z,45.00
2022-08-12T04:53:11.801Z,50.62
2022-08-12T04:54:11.822Z,50.62
2022-08-12T04:55:11.785Z,50.62
2022-08-12T04:56:11.782Z,50.62
2022-08-12T04:57:11.792Z,50.62
2022-08-12T04:58:11.757Z,50.62
2022-08-12T04:59:11.773Z,56.25
2022-08-12T05:00:11.737Z,56.25
2022-08-12T05:01:11.732Z,56.25
2022-08-12T05:02:16.621Z,56.25
2022-08-12T05:03:11.706Z,61.88
2022-08-12T05:04:11.695Z,61.88
2022-08-12T05:05:11.695Z,61.88
2022-08-12T05:06:11.673Z,61.88
2022-08-12T05:07:11.654Z,61.88
2022-08-12T05:08:11.652Z,67.50
2022-08-12T05:09:13.463Z,67.50
2022-08-12T05:10:11.638Z,73.12
2022-08-12T05:11:11.613Z,78.75
2022-08-12T05:12:11.602Z,78.75
2022-08-12T05:13:11.618Z,78.75
2022-08-12T05:14:11.601Z,84.38
2022-08-12T05:15:21.268Z,84.38
2022-08-12T05:16:11.574Z,84.38
2022-08-12T05:17:11.557Z,90.00
2022-08-12T05:18:19.004Z,90.00
2022-08-12T05:19:18.471Z,90.00
2022-08-12T05:20:11.515Z,95.62
2022-08-12T05:21:11.517Z,90.00
2022-08-12T05:22:11.510Z,95.62
2022-08-12T05:23:13.392Z,95.62
2022-08-12T05:24:11.467Z,95.62
2022-08-12T05:25:11.467Z,101.25
2022-08-12T05:26:11.461Z,101.25
2022-08-12T05:27:11.420Z,101.25
2022-08-12T05:28:11.417Z,106.88
2022-08-12T05:30:07.042Z,106.88
2022-08-12T05:30:11.404Z,106.88
2022-08-12T05:31:11.397Z,112.50
2022-08-12T05:32:11.375Z,112.50
2022-08-12T05:33:11.370Z,112.50
2022-08-12T05:34:11.351Z,118.12
2022-08-12T05:35:11.333Z,118.12
2022-08-12T05:36:11.347Z,118.12
2022-08-12T05:37:12.457Z,118.12
2022-08-12T05:38:12.440Z,123.75
2022-08-12T05:39:12.475Z,123.75
2022-08-12T05:40:12.430Z,123.75
2022-08-12T05:41:12.418Z,123.75
2022-08-12T05:42:12.388Z,129.38
2022-08-12T05:43:12.385Z,129.38
2022-08-12T05:44:12.361Z,129.38
2022-08-12T05:45:12.357Z,135.00
2022-08-12T05:46:12.368Z,135.00
2022-08-12T05:47:12.338Z,135.00
2022-08-12T05:48:12.323Z,140.62
2022-08-12T05:49:12.321Z,140.62
2022-08-12T05:50:12.302Z,146.25
2022-08-12T05:51:12.315Z,146.25
2022-08-12T05:52:12.273Z,146.25
2022-08-12T05:53:12.252Z,151.88
2022-08-12T05:54:12.308Z,151.88
2022-08-12T05:55:12.242Z,151.88
2022-08-12T05:56:12.280Z,157.50
2022-08-12T05:57:12.203Z,157.50
2022-08-12T05:58:12.216Z,157.50
2022-08-12T05:59:12.359Z,163.12
2022-08-12T06:00:12.227Z,163.12
2022-08-12T06:02:10.550Z,163.12
2022-08-12T06:02:13.747Z,168.75
2022-08-12T06:03:12.234Z,168.75
2022-08-12T06:04:12.482Z,168.75
2022-08-12T06:05:12.157Z,168.75
2022-08-12T06:06:12.132Z,174.38
2022-08-12T06:08:01.657Z,174.38
2022-08-12T06:08:12.113Z,174.38
2022-08-12T06:09:12.137Z,174.38
2022-08-12T06:10:12.106Z,174.38
2022-08-12T06:11:12.071Z,174.38
2022-08-12T06:12:12.094Z,174.38
2022-08-12T06:13:12.373Z,174.38
2022-08-12T06:14:12.335Z,180.00
2022-08-12T06:15:12.028Z,180.00
2022-08-12T06:16:12.033Z,180.00
2022-08-12T06:17:12.045Z,180.00
2022-08-12T06:18:16.029Z,185.62
2022-08-12T06:19:12.009Z,185.62
2022-08-12T06:20:28.305Z,185.62
2022-08-12T06:21:11.949Z,185.62
2022-08-12T06:22:11.981Z,191.25
2022-08-12T06:23:12.143Z,191.25
2022-08-12T06:24:11.945Z,191.25
2022-08-12T06:25:18.345Z,191.25
2022-08-12T06:26:11.925Z,191.25
2022-08-12T06:27:11.935Z,196.88
2022-08-12T06:28:11.878Z,196.88
2022-08-12T06:29:11.872Z,196.88
2022-08-12T06:30:18.102Z,202.50
2022-08-12T06:31:27.522Z,202.50
2022-08-12T06:32:13.907Z,208.12
2022-08-12T06:33:22.351Z,208.12
2022-08-12T06:35:23.651Z,208.12
2022-08-12T06:35:27.128Z,213.75
2022-08-12T06:36:11.832Z,213.75
2022-08-12T06:37:11.805Z,213.75
2022-08-12T06:38:11.805Z,219.38
2022-08-12T06:39:14.826Z,219.38
2022-08-12T06:40:11.810Z,219.38
2022-08-12T06:41:11.790Z,219.38
2022-08-12T06:42:41.985Z,225.00
2022-08-12T06:43:11.777Z,225.00
2022-08-12T06:44:11.754Z,225.00
2022-08-12T06:45:12.509Z,225.00
2022-08-12T06:46:11.852Z,225.00
2022-08-12T06:47:11.815Z,225.00
2022-08-12T06:48:11.809Z,225.00
2022-08-12T06:49:11.705Z,225.00
2022-08-12T06:50:11.710Z,230.62
2022-08-12T07:17:36.837Z,230.62
2022-08-12T07:18:38.831Z,230.62
2022-08-12T07:19:45.046Z,230.62
2022-08-12T07:20:52.102Z,236.25
2022-08-12T07:21:55.769Z,236.25
2022-08-12T07:22:37.781Z,236.25
2022-08-12T07:23:37.945Z,236.25
2022-08-12T07:24:37.558Z,236.25
2022-08-12T07:25:40.952Z,236.25
2022-08-12T07:26:38.905Z,236.25
2022-08-12T07:27:38.898Z,236.25
2022-08-12T07:28:37.549Z,236.25
2022-08-12T07:29:59.458Z,236.25
2022-08-12T07:30:38.581Z,236.25
2022-08-12T07:31:39.567Z,236.25
2022-08-12T07:32:37.556Z,236.25
2022-08-12T07:33:39.202Z,230.62
2022-08-12T07:34:39.189Z,230.62
2022-08-12T07:35:37.301Z,230.62
2022-08-12T07:36:37.500Z,230.62
2022-08-12T07:37:37.978Z,230.62
2022-08-12T07:38:37.235Z,230.62
2022-08-12T07:39:37.302Z,230.62
2022-08-12T07:40:38.154Z,230.62
2022-08-12T07:41:36.943Z,230.62
2022-08-12T07:42:36.904Z,230.62
2022-08-12T07:43:39.302Z,230.62
2022-08-12T07:44:37.201Z,230.62
2022-08-12T07:45:37.124Z,230.62
2022-08-12T07:46:36.915Z,230.62
2022-08-12T07:47:37.060Z,230.62
2022-08-12T07:48:36.964Z,236.25
2022-08-12T07:50:05.148Z,236.25
2022-08-12T07:50:36.802Z,236.25
2022-08-12T07:51:36.757Z,236.25
2022-08-12T07:52:36.799Z,236.25
2022-08-12T07:53:47.723Z,236.25
2022-08-12T07:54:36.728Z,236.25
2022-08-12T07:55:36.725Z,236.25
2022-08-12T07:56:36.725Z,236.25
2022-08-12T07:57:36.728Z,236.25
2022-08-12T07:58:36.697Z,236.25
2022-08-12T07:59:36.708Z,236.25
2022-08-12T08:00:36.725Z,236.25
2022-08-12T08:01:36.675Z,236.25
2022-08-12T08:02:36.663Z,236.25
2022-08-12T08:03:36.687Z,236.25
2022-08-12T08:04:36.626Z,236.25
2022-08-12T08:05:36.618Z,236.25
2022-08-12T08:06:36.596Z,236.25
2022-08-12T08:07:36.598Z,236.25
2022-08-12T08:08:36.656Z,236.25
2022-08-12T08:09:36.560Z,236.25
2022-08-12T08:10:36.576Z,236.25
2022-08-12T08:11:36.586Z,236.25
2022-08-12T08:12:36.540Z,236.25
2022-08-12T08:13:36.578Z,236.25
2022-08-12T08:14:36.539Z,236.25
2022-08-12T08:16:01.797Z,236.25
2022-08-12T08:16:38.525Z,236.25
2022-08-12T08:17:36.489Z,236.25
2022-08-12T08:18:36.445Z,236.25
2022-08-12T08:20:03.358Z,236.25
2022-08-12T08:20:36.442Z,236.25
2022-08-12T08:21:36.451Z,236.25
2022-08-12T08:22:41.435Z,236.25
2022-08-12T08:23:37.289Z,241.88
2022-08-12T08:24:36.429Z,236.25
2022-08-12T08:25:37.714Z,241.88
2022-08-12T08:26:36.404Z,236.25
2022-08-12T08:27:36.447Z,236.25
2022-08-12T08:28:36.524Z,236.25
2022-08-12T08:29:36.663Z,236.25
2022-08-12T08:30:36.339Z,241.88
2022-08-12T08:31:36.360Z,241.88
2022-08-12T08:32:36.517Z,241.88
2022-08-12T08:34:09.652Z,241.88
2022-08-12T08:34:53.026Z,241.88
2022-08-12T08:35:46.901Z,241.88
2022-08-12T08:36:36.298Z,241.88
2022-08-12T08:37:36.337Z,241.88
2022-08-12T08:38:36.577Z,241.88
2022-08-12T08:39:36.459Z,241.88
2022-08-12T08:40:37.428Z,241.88
2022-08-12T08:42:18.741Z,241.88
2022-08-12T08:42:36.331Z,241.88
2022-08-12T08:43:43.914Z,241.88
2022-08-12T08:44:36.236Z,241.88
2022-08-12T08:45:36.232Z,247.50
2022-08-12T08:46:36.190Z,247.50
2022-08-12T08:47:36.144Z,247.50
2022-08-12T08:48:36.151Z,247.50
2022-08-12T08:49:37.365Z,247.50
2022-08-12T08:50:36.143Z,247.50
2022-08-12T08:51:36.148Z,247.50
2022-08-12T08:52:40.408Z,247.50
2022-08-12T08:53:36.145Z,247.50
2022-08-12T08:54:36.154Z,247.50
2022-08-12T08:56:03.230Z,253.12
2022-08-12T08:56:36.125Z,253.12
2022-08-12T08:57:44.153Z,253.12
2022-08-12T08:58:36.093Z,253.12
2022-08-12T08:59:36.065Z,253.12
2022-08-12T09:00:36.098Z,253.12
2022-08-12T09:01:37.480Z,253.12
2022-08-12T09:02:36.086Z,258.75
2022-08-12T09:05:08.850Z,258.75
2022-08-12T09:05:12.699Z,258.75
2022-08-12T09:06:01.764Z,258.75
2022-08-12T09:06:37.793Z,258.75
2022-08-12T09:08:36.968Z,264.38
2022-08-12T09:10:01.343Z,264.38
2022-08-12T09:10:35.979Z,264.38
2022-08-12T09:12:06.688Z,264.38
2022-08-12T09:12:44.048Z,264.38
2022-08-12T09:14:12.384Z,264.38
2022-08-12T09:14:36.915Z,264.38
2022-08-12T09:15:36.239Z,264.38
2022-08-12T09:16:41.310Z,270.00
2022-08-12T09:17:42.198Z,270.00
2022-08-12T09:18:35.836Z,270.00
2022-08-12T09:19:35.853Z,270.00
2022-08-12T09:20:35.868Z,270.00
2022-08-12T09:21:54.816Z,270.00
2022-08-12T09:22:35.848Z,270.00
2022-08-12T09:24:36.749Z,270.00
2022-08-12T09:25:35.817Z,270.00
2022-08-12T09:26:45.884Z,270.00
2022-08-12T09:28:15.899Z,270.00
2022-08-12T09:28:37.321Z,270.00
2022-08-12T09:30:09.952Z,270.00
2022-08-12T09:30:41.322Z,270.00
2022-08-12T09:32:03.937Z,270.00
2022-08-12T09:33:05.080Z,270.00
2022-08-12T09:34:29.116Z,275.62
2022-08-12T09:34:37.827Z,275.62
2022-08-12T09:35:43.221Z,275.62
2022-08-12T09:36:57.859Z,275.62
2022-08-12T09:37:58.433Z,275.62
2022-08-12T09:38:36.925Z,275.62
2022-08-12T09:40:02.431Z,275.62
2022-08-12T09:41:01.605Z,275.62
2022-08-12T09:42:35.023Z,275.62
2022-08-12T09:42:43.566Z,275.62
2022-08-12T09:43:35.620Z,275.62
2022-08-12T09:44:39.382Z,275.62
2022-08-12T09:46:11.195Z,281.25
2022-08-12T09:46:35.640Z,281.25
2022-08-12T09:47:35.611Z,281.25
2022-08-12T09:48:36.256Z,281.25
2022-08-12T09:49:41.478Z,281.25
2022-08-12T09:50:35.553Z,281.25
2022-08-12T09:51:38.231Z,281.25
2022-08-12T09:52:35.604Z,281.25
2022-08-12T09:53:38.806Z,281.25
2022-08-12T09:54:36.103Z,281.25
2022-08-12T09:56:05.483Z,286.88
2022-08-12T09:56:59.406Z,286.88
2022-08-12T09:58:07.854Z,286.88
2022-08-12T09:58:57.595Z,286.88
2022-08-12T10:00:15.194Z,286.88
2022-08-12T10:00:48.422Z,286.88
2022-08-12T10:02:42.173Z,286.88
2022-08-12T10:02:43.172Z,286.88
2022-08-12T10:03:36.611Z,286.88
2022-08-12T10:04:36.694Z,286.88
2022-08-12T10:06:27.064Z,286.88
2022-08-12T10:06:36.609Z,292.50
2022-08-12T10:07:40.477Z,292.50
2022-08-12T10:08:35.335Z,292.50
2022-08-12T10:09:57.589Z,292.50
2022-08-12T10:10:40.346Z,292.50
2022-08-12T10:12:10.388Z,292.50
2022-08-12T10:12:35.427Z,292.50
2022-08-12T10:13:40.975Z,292.50
2022-08-12T10:14:37.056Z,292.50
2022-08-12T10:16:02.870Z,292.50
2022-08-12T10:16:39.303Z,292.50
2022-08-12T10:17:35.345Z,292.50
2022-08-12T10:18:35.917Z,292.50
2022-08-12T10:19:36.634Z,292.50
2022-08-12T10:20:35.196Z,298.12
2022-08-12T10:21:35.859Z,298.12
2022-08-12T10:22:38.852Z,298.12
2022-08-12T10:23:40.057Z,298.12
2022-08-12T10:24:35.194Z,298.12
2022-08-12T10:26:35.170Z,298.12
2022-08-12T10:26:39.122Z,298.12
2022-08-12T10:28:03.667Z,303.75
2022-08-12T10:28:35.081Z,298.12
2022-08-12T10:30:03.579Z,298.12
2022-08-12T10:30:40.109Z,298.12
2022-08-12T10:31:46.939Z,298.12
2022-08-12T10:32:44.851Z,303.75
2022-08-12T10:33:54.871Z,298.12
2022-08-12T10:34:35.014Z,298.12
2022-08-12T10:35:37.963Z,298.12
2022-08-12T10:36:36.393Z,298.12
2022-08-12T10:38:35.507Z,298.12
2022-08-12T10:38:41.397Z,298.12
2022-08-12T10:40:06.192Z,298.12
2022-08-12T10:40:37.801Z,298.12
2022-08-12T10:41:57.674Z,298.12
2022-08-12T10:42:34.954Z,303.75
2022-08-12T10:43:56.402Z,298.12
2022-08-12T10:44:35.167Z,303.75
2022-08-12T10:45:38.014Z,303.75
2022-08-12T10:46:34.926Z,303.75
2022-08-12T10:48:19.096Z,303.75
2022-08-12T10:48:34.941Z,303.75
2022-08-12T10:50:02.792Z,303.75
2022-08-12T10:51:02.126Z,303.75
2022-08-12T10:52:04.611Z,303.75
2022-08-12T10:52:37.857Z,303.75
2022-08-12T10:53:44.087Z,303.75
2022-08-12T10:54:36.803Z,303.75
2022-08-12T10:55:35.588Z,303.75
2022-08-12T10:56:35.438Z,303.75
2022-08-12T10:58:15.094Z,303.75
2022-08-12T10:58:34.853Z,303.75
2022-08-12T11:00:31.497Z,303.75
2022-08-12T11:00:55.570Z,303.75
2022-08-12T11:04:18.043Z,303.75
2022-08-12T11:04:22.843Z,303.75
2022-08-12T11:04:27.052Z,303.75
2022-08-12T11:04:43.728Z,309.38
2022-08-12T11:07:05.541Z,309.38
2022-08-12T11:07:06.646Z,309.38
2022-08-12T11:08:37.767Z,309.38
2022-08-12T11:08:43.142Z,303.75
2022-08-12T11:09:41.626Z,309.38
2022-08-12T11:10:35.644Z,309.38
2022-08-12T11:12:35.046Z,309.38
2022-08-12T11:12:58.852Z,309.38
2022-08-12T11:13:46.110Z,309.38
2022-08-12T11:14:49.559Z,309.38
2022-08-12T11:16:19.615Z,309.38
2022-08-12T11:16:34.612Z,309.38
2022-08-12T11:17:51.880Z,309.38
2022-08-12T11:18:34.586Z,309.38
2022-08-12T11:19:34.584Z,309.38
2022-08-12T11:20:34.539Z,309.38
2022-08-12T11:21:57.930Z,309.38
2022-08-12T11:22:34.517Z,309.38
2022-08-12T11:23:37.438Z,309.38
2022-08-12T11:24:34.621Z,309.38
2022-08-12T11:25:56.680Z,309.38
2022-08-12T11:26:34.450Z,315.00
2022-08-12T11:27:34.414Z,315.00
2022-08-12T11:28:37.557Z,309.38
2022-08-12T11:30:05.296Z,309.38
2022-08-12T11:30:34.454Z,315.00
2022-08-12T11:31:55.991Z,315.00
2022-08-12T11:32:39.122Z,309.38
2022-08-12T11:34:06.373Z,309.38
2022-08-12T11:34:53.857Z,309.38
2022-08-12T11:35:35.451Z,309.38
2022-08-12T11:36:39.238Z,315.00
2022-08-12T11:37:57.982Z,315.00
2022-08-12T11:38:35.513Z,315.00
2022-08-12T11:40:34.337Z,309.38
2022-08-12T11:41:34.488Z,309.38
2022-08-12T11:42:34.345Z,315.00
2022-08-12T11:43:50.137Z,315.00
2022-08-12T11:44:37.289Z,315.00
2022-08-12T11:45:39.013Z,315.00
2022-08-12T11:46:34.314Z,315.00
2022-08-12T11:47:34.212Z,315.00
2022-08-12T11:48:52.246Z,315.00
2022-08-12T11:49:35.408Z,315.00
2022-08-12T11:50:34.514Z,315.00
2022-08-12T11:51:36.433Z,315.00
2022-08-12T11:52:56.645Z,315.00
2022-08-12T11:53:59.144Z,309.38
2022-08-12T11:54:35.255Z,309.38
2022-08-12T11:55:34.235Z,309.38
2022-08-12T11:56:38.186Z,309.38
2022-08-12T11:58:09.519Z,309.38
2022-08-12T12:00:08.854Z,309.38
2022-08-12T12:02:00.776Z,309.38
2022-08-12T12:02:34.421Z,315.00
2022-08-12T12:03:45.984Z,315.00
2022-08-12T12:04:34.233Z,315.00
2022-08-12T12:05:39.819Z,309.38
2022-08-12T12:06:35.627Z,309.38
2022-08-12T12:08:37.972Z,309.38
2022-08-12T12:08:42.703Z,309.38
2022-08-12T12:09:51.930Z,309.38
2022-08-12T12:10:36.059Z,309.38
2022-08-12T12:11:48.680Z,309.38
2022-08-12T12:12:34.213Z,309.38
2022-08-12T12:14:06.721Z,309.38
2022-08-12T12:14:38.186Z,309.38
2022-08-12T12:15:40.875Z,309.38
2022-08-12T12:16:48.235Z,315.00
2022-08-12T12:17:44.436Z,309.38
2022-08-12T12:18:43.538Z,309.38
2022-08-12T12:20:45.249Z,315.00
2022-08-12T12:21:47.771Z,315.00
2022-08-12T12:22:45.375Z,315.00
2022-08-12T12:23:47.199Z,315.00
2022-08-12T12:24:44.307Z,315.00
2022-08-12T12:26:07.211Z,315.00
2022-08-12T12:26:44.262Z,315.00
2022-08-12T12:28:06.330Z,315.00
2022-08-12T12:28:54.570Z,315.00
2022-08-12T12:30:17.533Z,320.62
2022-08-12T12:30:55.063Z,320.62
2022-08-12T12:32:08.979Z,320.62
2022-08-12T12:32:53.456Z,320.62
2022-08-12T12:33:57.427Z,315.00
2022-08-12T12:35:13.797Z,309.38
2022-08-12T12:36:18.239Z,320.62
2022-08-12T12:36:45.326Z,281.25
2022-08-12T12:38:05.341Z,320.62
2022-08-12T12:38:45.263Z,315.00
2022-08-12T12:39:54.711Z,315.00
2022-08-12T12:40:45.288Z,315.00
2022-08-12T12:42:43.853Z,309.38
2022-08-12T12:42:56.711Z,315.00
2022-08-12T12:43:56.471Z,315.00
2022-08-12T12:44:53.454Z,315.00
2022-08-12T12:45:46.544Z,315.00
2022-08-12T12:46:45.497Z,309.38
2022-08-12T12:47:45.389Z,309.38
2022-08-12T12:51:09.345Z,309.38
2022-08-12T12:52:19.408Z,309.38
2022-08-12T12:53:07.961Z,309.38
2022-08-12T12:54:10.171Z,309.38
2022-08-12T12:55:07.880Z,309.38
2022-08-12T12:56:07.848Z,309.38
2022-08-12T12:57:07.847Z,309.38
2022-08-12T12:58:07.861Z,309.38
2022-08-12T12:59:07.824Z,309.38
2022-08-12T13:00:07.806Z,309.38
2022-08-12T13:01:27.959Z,315.00
2022-08-12T13:02:08.708Z,315.00
2022-08-12T13:03:18.913Z,315.00
2022-08-12T13:04:07.758Z,315.00
2022-08-12T13:05:11.817Z,315.00
2022-08-12T13:06:07.743Z,315.00
2022-08-12T13:07:07.745Z,309.38
2022-08-12T13:08:07.742Z,309.38
2022-08-12T13:09:12.775Z,309.38
2022-08-12T13:10:07.698Z,309.38
2022-08-12T13:11:07.694Z,309.38
2022-08-12T13:12:08.116Z,309.38
2022-08-12T13:14:07.579Z,309.38
2022-08-12T13:14:12.633Z,309.38
2022-08-12T13:15:07.644Z,309.38
2022-08-12T13:16:07.671Z,309.38
2022-08-12T13:17:07.651Z,309.38
2022-08-12T13:18:07.599Z,309.38
2022-08-12T13:19:07.812Z,309.38
2022-08-12T13:20:07.852Z,309.38
2022-08-12T13:21:15.489Z,309.38
2022-08-12T13:22:08.125Z,309.38
2022-08-12T13:23:36.507Z,309.38
2022-08-12T13:24:10.330Z,309.38
2022-08-12T13:25:07.535Z,309.38
2022-08-12T13:26:14.569Z,309.38
2022-08-12T13:27:08.649Z,315.00
2022-08-12T13:28:08.656Z,309.38
2022-08-12T13:29:11.694Z,315.00
2022-08-12T13:30:11.009Z,315.00
2022-08-12T13:31:08.692Z,315.00
2022-08-12T13:32:19.021Z,315.00
2022-08-12T13:33:17.896Z,315.00